createdAt,value
2018-03-23T00:01:20.924Z,6.70
2018-03-23T00:03:48.685Z,6.70
2018-03-23T00:06:15.846Z,6.70
2018-03-23T00:08:43.912Z,6.70
2018-03-23T00:11:11.065Z,6.70
2018-03-23T00:13:39.125Z,6.70
2018-03-23T00:16:06.285Z,6.70
2018-03-23T00:18:34.045Z,6.70
2018-03-23T00:21:01.193Z,6.70
2018-03-23T00:23:28.645Z,6.70
2018-03-23T00:25:55.785Z,6.70
2018-03-23T00:28:23.272Z,6.70
2018-03-23T00:30:51.325Z,6.80
2018-03-23T00:33:18.485Z,6.70
2018-03-23T00:35:45.645Z,6.80
2018-03-23T00:38:13.804Z,6.80
2018-03-23T00:40:41.165Z,6.80
2018-03-23T00:43:09.445Z,6.90
2018-03-23T00:45:36.686Z,6.90
2018-03-23T00:48:03.832Z,6.90
2018-03-23T00:50:31.285Z,6.90
2018-03-23T00:52:58.745Z,6.90
2018-03-23T00:55:25.888Z,7.00
2018-03-23T00:57:53.046Z,7.00
2018-03-23T01:00:21.525Z,7.00
2018-03-23T01:02:48.886Z,7.00
2018-03-23T01:05:16.030Z,7.00
2018-03-23T01:07:43.192Z,7.10
2018-03-23T01:10:10.325Z,7.10
2018-03-23T01:12:37.465Z,7.10
2018-03-23T01:15:04.635Z,7.20
2018-03-23T01:17:31.768Z,7.20
2018-03-23T01:19:59.225Z,7.20
2018-03-23T01:22:26.685Z,7.20
2018-03-23T01:24:53.831Z,7.30
2018-03-23T01:27:20.985Z,7.30
2018-03-23T01:29:48.125Z,7.30
2018-03-23T01:32:15.592Z,7.30
2018-03-23T01:34:42.744Z,7.30
2018-03-23T01:37:09.886Z,7.30
2018-03-23T01:39:37.044Z,7.30
2018-03-23T01:42:04.504Z,7.30
2018-03-23T01:44:32.565Z,7.30
2018-03-23T01:46:59.730Z,7.30
2018-03-23T01:49:27.784Z,7.30
2018-03-23T01:51:54.952Z,7.30
2018-03-23T01:54:22.084Z,7.30
2018-03-23T01:56:49.245Z,7.30
2018-03-23T01:59:16.392Z,7.30
2018-03-23T02:01:45.384Z,7.30
2018-03-23T02:04:12.525Z,7.30
2018-03-23T02:06:39.685Z,7.30
2018-03-23T02:09:07.752Z,7.30
2018-03-23T02:11:35.832Z,7.30
2018-03-23T02:14:03.891Z,7.30
2018-03-23T02:16:31.044Z,7.30
2018-03-23T02:18:58.509Z,7.30
2018-03-23T02:21:26.564Z,7.30
2018-03-23T02:23:53.726Z,7.30
2018-03-23T02:26:20.871Z,7.40
2018-03-23T02:28:48.952Z,7.40
2018-03-23T02:31:16.086Z,7.30
2018-03-23T02:33:43.244Z,7.30
2018-03-23T02:36:10.397Z,7.30
2018-03-23T02:38:38.446Z,7.30
2018-03-23T02:41:05.916Z,7.30
2018-03-23T02:43:33.064Z,7.40
2018-03-23T02:46:00.248Z,7.40
2018-03-23T02:48:27.366Z,7.40
2018-03-23T02:50:54.811Z,7.40
2018-03-23T02:53:21.965Z,7.40
2018-03-23T02:55:49.327Z,7.40
2018-03-23T02:58:16.564Z,7.50
2018-03-23T03:00:43.726Z,7.50
2018-03-23T03:03:10.886Z,7.50
2018-03-23T03:05:38.646Z,7.50
2018-03-23T03:08:05.785Z,7.50
2018-03-23T03:10:32.844Z,7.50
2018-03-23T03:13:00.088Z,7.50
2018-03-23T03:15:27.245Z,7.40
2018-03-23T03:17:54.392Z,7.40
2018-03-23T03:20:21.845Z,7.40
2018-03-23T03:22:50.232Z,7.40
2018-03-23T03:25:17.365Z,7.40
2018-03-23T03:27:44.525Z,7.40
2018-03-23T03:30:12.286Z,7.30
2018-03-23T03:32:39.450Z,7.30
2018-03-23T03:35:06.585Z,7.30
2018-03-23T03:37:33.728Z,7.30
2018-03-23T03:40:00.886Z,7.30
2018-03-23T03:42:28.025Z,7.30
2018-03-23T03:44:55.202Z,7.30
2018-03-23T03:47:23.245Z,7.30
2018-03-23T03:49:50.404Z,7.30
2018-03-23T03:52:17.919Z,7.30
2018-03-23T03:54:45.305Z,7.30
2018-03-23T03:57:12.452Z,7.30
2018-03-23T03:59:39.926Z,7.20
2018-03-23T04:02:07.364Z,7.20
2018-03-23T04:04:34.825Z,7.20
2018-03-23T04:07:02.601Z,7.20
2018-03-23T04:09:29.739Z,7.20
2018-03-23T04:11:57.818Z,7.20
2018-03-23T04:14:25.609Z,7.20
2018-03-23T04:16:52.724Z,7.20
2018-03-23T04:19:19.879Z,7.20
2018-03-23T04:21:47.019Z,7.20
2018-03-23T04:24:14.478Z,7.20
2018-03-23T04:26:41.641Z,7.20
2018-03-23T04:29:08.699Z,7.20
2018-03-23T04:31:35.925Z,7.20
2018-03-23T04:34:03.079Z,7.20
2018-03-23T04:36:30.219Z,7.20
2018-03-23T04:38:57.380Z,7.20
2018-03-23T04:41:25.139Z,7.20
2018-03-23T04:43:52.293Z,7.20
2018-03-23T04:46:19.439Z,7.20
2018-03-23T04:48:46.899Z,7.20
2018-03-23T04:51:14.059Z,7.20
2018-03-23T04:53:41.819Z,7.20
2018-03-23T04:56:09.879Z,7.20
2018-03-23T04:58:37.039Z,7.20
2018-03-23T05:01:04.500Z,7.20
2018-03-23T05:03:31.639Z,7.20
2018-03-23T05:05:59.109Z,7.20
2018-03-23T05:08:27.179Z,7.20
2018-03-23T05:10:54.318Z,7.10
2018-03-23T05:13:21.470Z,7.10
2018-03-23T05:15:48.619Z,7.10
2018-03-23T05:18:15.759Z,7.10
2018-03-23T05:20:42.919Z,7.10
2018-03-23T05:23:10.059Z,7.10
2018-03-23T05:25:37.204Z,7.10
2018-03-23T05:28:04.359Z,7.10
2018-03-23T05:30:31.521Z,7.10
2018-03-23T05:32:59.580Z,7.10
2018-03-23T05:35:26.740Z,7.10
2018-03-23T05:37:54.799Z,7.10
2018-03-23T05:40:21.959Z,7.10
2018-03-23T05:42:50.019Z,7.10
2018-03-23T05:45:17.179Z,7.10
2018-03-23T05:47:45.239Z,7.10
2018-03-23T05:50:12.380Z,7.10
2018-03-23T05:52:39.546Z,7.10
2018-03-23T05:55:08.239Z,7.10
2018-03-23T05:57:36.003Z,7.10
2018-03-23T06:00:03.139Z,7.10
2018-03-23T06:02:30.299Z,7.10
2018-03-23T06:04:57.439Z,7.10
2018-03-23T06:07:24.899Z,7.10
2018-03-23T06:09:52.060Z,7.20
2018-03-23T06:12:19.499Z,7.20
2018-03-23T06:14:46.659Z,7.20
2018-03-23T06:17:14.720Z,7.20
2018-03-23T06:19:41.879Z,7.20
2018-03-23T06:22:09.939Z,7.20
2018-03-23T06:24:37.099Z,7.20
2018-03-23T06:27:04.239Z,7.20
2018-03-23T06:29:31.399Z,7.20
2018-03-23T06:31:59.159Z,7.30
2018-03-23T06:34:26.300Z,7.20
2018-03-23T06:36:53.459Z,7.30
2018-03-23T06:39:20.599Z,7.30
2018-03-23T06:41:48.599Z,7.30
2018-03-23T06:44:16.799Z,7.40
2018-03-23T06:46:44.199Z,7.40
2018-03-23T06:49:11.962Z,7.40
2018-03-23T06:51:39.120Z,7.40
2018-03-23T06:54:06.259Z,7.40
2018-03-23T06:56:33.406Z,7.40
2018-03-23T06:59:00.558Z,7.40
2018-03-23T07:01:27.699Z,7.40
2018-03-23T07:03:54.859Z,7.40
2018-03-23T07:06:22.019Z,7.50
2018-03-23T07:08:49.159Z,7.50
2018-03-23T07:11:16.319Z,7.50
2018-03-23T07:13:43.779Z,7.50
2018-03-23T07:16:11.839Z,7.50
2018-03-23T07:18:39.000Z,7.50
2018-03-23T07:21:06.439Z,7.50
2018-03-23T07:23:34.219Z,7.50
2018-03-23T07:26:01.362Z,7.50
2018-03-23T07:28:29.155Z,7.60
2018-03-23T07:30:56.279Z,7.60
2018-03-23T07:33:24.039Z,7.70
2018-03-23T07:35:51.179Z,7.70
2018-03-23T07:38:18.340Z,7.70
2018-03-23T07:40:45.479Z,7.80
2018-03-23T07:43:13.560Z,7.90
2018-03-23T07:45:41.620Z,7.90
2018-03-23T07:48:08.781Z,7.90
2018-03-23T07:50:35.919Z,7.90
2018-03-23T07:53:03.078Z,7.90
2018-03-23T07:55:31.138Z,8.00
2018-03-23T07:57:58.600Z,8.00
2018-03-23T08:00:25.741Z,8.00
2018-03-23T08:02:52.900Z,8.00
2018-03-23T08:05:20.959Z,8.10
2018-03-23T08:07:48.739Z,8.10
2018-03-23T08:10:15.881Z,8.10
2018-03-23T08:12:43.021Z,8.20
2018-03-23T08:15:10.171Z,8.20
2018-03-23T08:17:37.338Z,8.30
2018-03-23T08:20:04.799Z,8.30
2018-03-23T08:22:32.559Z,8.40
2018-03-23T08:25:00.319Z,8.40
2018-03-23T08:27:28.698Z,8.40
2018-03-23T08:29:56.760Z,8.40
2018-03-23T08:32:23.920Z,8.40
2018-03-23T08:34:51.060Z,8.40
2018-03-23T08:37:18.220Z,8.40
2018-03-23T08:39:45.980Z,8.50
2018-03-23T08:42:13.120Z,8.40
2018-03-23T08:44:40.317Z,8.50
2018-03-23T08:47:07.420Z,8.50
2018-03-23T08:49:34.580Z,8.50
2018-03-23T08:52:01.722Z,8.60
2018-03-23T08:54:28.885Z,8.60
2018-03-23T08:56:56.019Z,8.60
2018-03-23T08:59:23.180Z,8.70
2018-03-23T09:01:50.320Z,8.70
2018-03-23T09:04:18.080Z,8.80
2018-03-23T09:06:45.240Z,8.80
2018-03-23T09:09:13.000Z,8.90
2018-03-23T09:11:40.460Z,8.90
2018-03-23T09:14:07.600Z,8.90
2018-03-23T09:16:34.760Z,8.90
2018-03-23T09:19:09.580Z,8.90
2018-03-23T09:21:36.740Z,8.90
2018-03-23T09:24:04.800Z,9.10
2018-03-23T09:26:31.940Z,9.10
2018-03-23T09:28:59.100Z,9.20
2018-03-23T09:31:26.260Z,9.30
2018-03-23T09:33:53.980Z,9.50
2018-03-23T09:36:21.180Z,9.50
2018-03-23T09:38:48.320Z,9.60
2018-03-23T09:41:15.460Z,9.60
2018-03-23T09:43:42.620Z,9.70
2018-03-23T09:46:10.080Z,9.80
2018-03-23T09:48:37.246Z,9.90
2018-03-23T09:51:04.580Z,9.90
2018-03-23T09:53:31.820Z,10.00
2018-03-23T09:55:58.980Z,10.00
2018-03-23T09:58:26.120Z,10.10
2018-03-23T10:00:53.280Z,10.10
2018-03-23T10:03:21.040Z,10.20
2018-03-23T10:05:48.180Z,10.20
2018-03-23T10:08:15.340Z,10.20
2018-03-23T10:10:42.480Z,10.30
2018-03-23T10:13:09.641Z,10.30
2018-03-23T10:15:36.781Z,10.30
2018-03-23T10:18:03.940Z,10.30
2018-03-23T10:20:31.080Z,10.30
2018-03-23T10:22:58.240Z,10.20
2018-03-23T10:25:25.414Z,10.30
2018-03-23T10:27:52.521Z,10.30
2018-03-23T10:30:19.680Z,10.30
2018-03-23T10:32:46.820Z,10.30
2018-03-23T10:35:13.981Z,10.40
2018-03-23T10:37:41.141Z,10.50
2018-03-23T10:40:08.281Z,10.50
2018-03-23T10:42:36.050Z,10.60
2018-03-23T10:45:03.200Z,10.60
2018-03-23T10:47:30.340Z,10.70
2018-03-23T10:49:57.500Z,10.70
2018-03-23T10:52:25.580Z,10.90
2018-03-23T10:54:53.641Z,11.00
2018-03-23T10:57:21.404Z,11.00
2018-03-23T10:59:48.541Z,11.00
2018-03-23T11:05:23.700Z,11.10
2018-03-23T11:07:51.160Z,11.10
2018-03-23T11:10:18.300Z,11.00
2018-03-23T11:12:45.461Z,11.00
2018-03-23T11:15:13.520Z,10.90
2018-03-23T11:17:40.680Z,10.90
2018-03-23T11:20:07.820Z,10.90
2018-03-23T11:22:34.980Z,11.00
2018-03-23T11:25:03.041Z,11.00
2018-03-23T11:27:30.200Z,11.00
2018-03-23T11:29:57.340Z,11.00
2018-03-23T11:32:24.500Z,11.00
2018-03-23T11:34:51.640Z,11.00
2018-03-23T11:37:18.800Z,11.00
2018-03-23T11:39:45.945Z,11.00
2018-03-23T11:42:13.104Z,11.00
2018-03-23T11:44:40.240Z,10.90
2018-03-23T11:47:07.400Z,10.90
2018-03-23T11:49:34.321Z,10.90
2018-03-23T11:52:01.700Z,10.80
2018-03-23T11:54:29.761Z,10.80
2018-03-23T11:56:56.920Z,10.80
2018-03-23T11:59:24.983Z,10.80
2018-03-23T12:01:52.139Z,10.80
2018-03-23T12:04:19.280Z,10.80
2018-03-23T12:06:46.260Z,10.90
2018-03-23T12:09:13.280Z,10.90
2018-03-23T12:11:41.044Z,11.10
2018-03-23T12:14:08.181Z,11.10
2018-03-23T12:16:35.341Z,11.20
2018-03-23T12:19:03.101Z,11.50
2018-03-23T12:21:30.247Z,11.50
2018-03-23T12:23:57.401Z,11.60
2018-03-23T12:26:24.541Z,11.70
2018-03-23T12:28:51.701Z,11.80
2018-03-23T12:31:18.841Z,12.00
2018-03-23T12:33:46.001Z,12.00
2018-03-23T12:36:13.146Z,12.10
2018-03-23T12:38:40.301Z,12.20
2018-03-23T12:41:07.441Z,12.20
2018-03-23T12:43:34.623Z,12.20
2018-03-23T12:46:01.745Z,12.20
2018-03-23T12:48:28.901Z,12.20
2018-03-23T12:50:56.665Z,12.10
2018-03-23T12:53:23.821Z,12.00
2018-03-23T12:55:50.961Z,12.00
2018-03-23T12:58:18.121Z,11.90
2018-03-23T13:00:45.482Z,11.80
2018-03-23T13:03:13.321Z,11.50
2018-03-23T13:05:40.481Z,11.50
2018-03-23T13:08:08.241Z,11.30
2018-03-23T13:10:36.007Z,11.10
2018-03-23T13:13:03.161Z,11.10
2018-03-23T13:15:30.301Z,11.10
2018-03-23T13:17:57.441Z,11.00
2018-03-23T13:20:24.601Z,10.90
2018-03-23T13:22:51.786Z,10.80
2018-03-23T13:25:19.846Z,10.70
2018-03-23T13:27:46.998Z,10.70
2018-03-23T13:30:14.159Z,10.70
2018-03-23T13:32:41.300Z,10.60
2018-03-23T13:35:09.058Z,10.60
2018-03-23T13:37:36.292Z,10.60
2018-03-23T13:40:03.359Z,10.60
2018-03-23T13:42:30.517Z,10.60
2018-03-23T13:44:57.658Z,10.60
2018-03-23T13:47:24.818Z,10.60
2018-03-23T13:49:51.958Z,10.70
2018-03-23T13:52:19.098Z,10.60
2018-03-23T13:54:46.258Z,10.70
2018-03-23T13:57:13.398Z,10.70
2018-03-23T13:59:46.698Z,10.60
2018-03-23T14:02:13.840Z,10.60
2018-03-23T14:04:40.998Z,10.60
2018-03-23T14:07:08.258Z,10.60
2018-03-23T14:09:35.298Z,10.50
2018-03-23T14:12:03.058Z,10.50
2018-03-23T14:14:30.227Z,10.50
2018-03-23T14:16:57.357Z,10.40
2018-03-23T14:19:24.498Z,10.40
2018-03-23T14:21:51.658Z,10.40
2018-03-23T14:24:19.732Z,10.40
2018-03-23T14:26:47.498Z,10.40
2018-03-23T14:29:15.262Z,10.30
2018-03-23T14:31:42.418Z,10.30
2018-03-23T14:34:09.558Z,10.40
2018-03-23T14:36:38.239Z,10.30
2018-03-23T14:39:05.398Z,10.30
2018-03-23T14:41:32.538Z,10.30
2018-03-23T14:43:59.678Z,10.30
2018-03-23T14:46:26.838Z,10.30
2018-03-23T14:48:53.978Z,10.30
2018-03-23T14:51:21.138Z,10.30
2018-03-23T14:53:48.278Z,10.30
2018-03-23T14:56:15.439Z,10.30
2018-03-23T14:58:49.337Z,10.30
2018-03-23T15:01:16.498Z,10.30
2018-03-23T15:03:44.258Z,10.40
2018-03-23T15:06:12.318Z,10.30
2018-03-23T15:08:39.479Z,10.30
2018-03-23T15:11:07.238Z,10.40
2018-03-23T15:13:34.378Z,10.30
2018-03-23T15:16:01.592Z,10.30
2018-03-23T15:18:28.698Z,10.40
2018-03-23T15:20:56.758Z,10.40
2018-03-23T15:23:23.918Z,10.40
2018-03-23T15:25:51.058Z,10.40
2018-03-23T15:28:18.219Z,10.40
2018-03-23T15:30:45.358Z,10.40
2018-03-23T15:33:12.518Z,10.40
2018-03-23T15:35:39.660Z,10.40
2018-03-23T15:38:07.418Z,10.40
2018-03-23T15:40:34.578Z,10.40
2018-03-23T15:43:02.338Z,10.50
2018-03-23T15:45:30.098Z,10.50
2018-03-23T15:47:57.258Z,10.40
2018-03-23T15:50:25.018Z,10.50
2018-03-23T15:52:52.163Z,10.40
2018-03-23T15:55:19.320Z,10.50
2018-03-23T15:57:46.461Z,10.50
2018-03-23T16:00:14.227Z,10.50
2018-03-23T16:02:41.381Z,10.50
2018-03-23T16:05:09.440Z,10.40
2018-03-23T16:07:36.600Z,10.40
2018-03-23T16:10:04.040Z,10.40
2018-03-23T16:12:31.205Z,10.40
2018-03-23T16:14:58.339Z,10.40
2018-03-23T16:17:25.501Z,10.30
2018-03-23T16:19:53.480Z,10.30
2018-03-23T16:22:20.721Z,10.30
2018-03-23T16:24:47.860Z,10.20
2018-03-23T16:27:15.021Z,10.20
2018-03-23T16:29:42.181Z,10.20
2018-03-23T16:32:09.320Z,10.10
2018-03-23T16:34:36.400Z,10.10
2018-03-23T16:37:04.201Z,10.10
2018-03-23T16:39:31.247Z,10.10
2018-03-23T16:41:58.530Z,10.00
2018-03-23T16:44:25.490Z,10.00
2018-03-23T16:46:52.385Z,10.00
2018-03-23T16:49:19.488Z,10.00
2018-03-23T16:51:47.169Z,9.90
2018-03-23T16:54:14.029Z,9.90
2018-03-23T16:56:41.065Z,9.80
2018-03-23T16:59:08.025Z,9.80
2018-03-23T17:01:35.104Z,9.80
2018-03-23T17:04:02.063Z,9.80
2018-03-23T17:06:29.399Z,9.70
2018-03-23T17:08:56.402Z,9.70
2018-03-23T17:11:23.340Z,9.70
2018-03-23T17:13:50.245Z,9.70
2018-03-23T17:16:17.237Z,9.70
2018-03-23T17:18:44.538Z,9.70
2018-03-23T17:21:11.639Z,9.70
2018-03-23T17:23:38.620Z,9.80
2018-03-23T17:26:05.560Z,9.80
2018-03-23T17:28:32.525Z,9.70
2018-03-23T17:30:59.486Z,9.70
2018-03-23T17:33:26.829Z,9.70
2018-03-23T17:35:53.767Z,9.70
2018-03-23T17:38:20.710Z,9.70
2018-03-23T17:40:47.670Z,9.70
2018-03-23T17:43:14.648Z,9.60
2018-03-23T17:45:41.549Z,9.60
2018-03-23T17:48:08.509Z,9.50
2018-03-23T17:50:35.509Z,9.00
2018-03-23T17:53:02.448Z,9.50
2018-03-23T17:55:29.349Z,9.50
2018-03-23T17:57:57.109Z,9.50
2018-03-23T18:00:24.869Z,9.50
2018-03-23T18:02:51.792Z,9.50
2018-03-23T18:05:18.809Z,9.60
2018-03-23T18:07:46.290Z,9.60
2018-03-23T18:10:13.450Z,9.60
2018-03-23T18:12:40.590Z,9.70
2018-03-23T18:15:07.750Z,9.70
2018-03-23T18:17:34.909Z,9.70
2018-03-23T18:20:02.975Z,9.70
2018-03-23T18:22:30.129Z,9.70
2018-03-23T18:24:58.191Z,9.70
2018-03-23T18:27:25.350Z,9.60
2018-03-23T18:29:53.409Z,9.60
2018-03-23T18:32:20.569Z,9.60
2018-03-23T18:34:48.630Z,9.50
2018-03-23T18:37:15.789Z,9.50
2018-03-23T18:39:42.929Z,9.50
2018-03-23T18:42:10.069Z,9.50
2018-03-23T18:44:37.529Z,9.50
2018-03-23T18:47:04.690Z,9.50
2018-03-23T18:49:31.832Z,9.50
2018-03-23T18:51:58.750Z,9.50
2018-03-23T18:54:26.737Z,9.50
2018-03-23T18:56:53.703Z,9.40
2018-03-23T18:59:20.642Z,9.40
2018-03-23T19:01:47.484Z,9.40
2018-03-23T19:04:14.509Z,9.20
2018-03-23T19:06:41.568Z,9.30
2018-03-23T19:09:08.527Z,9.30
2018-03-23T19:11:35.569Z,9.40
2018-03-23T19:14:02.622Z,9.30
2018-03-23T19:16:29.584Z,9.30
2018-03-23T19:18:57.002Z,9.40
2018-03-23T19:21:24.162Z,9.40
2018-03-23T19:23:51.302Z,9.40
2018-03-23T19:26:18.462Z,9.40
2018-03-23T19:28:45.650Z,9.40
2018-03-23T19:31:12.762Z,9.50
2018-03-23T19:33:39.928Z,9.50
2018-03-23T19:36:07.682Z,9.60
2018-03-23T19:38:35.744Z,9.60
2018-03-23T19:41:03.202Z,9.60
2018-03-23T19:43:30.362Z,9.60
2018-03-23T19:45:58.122Z,9.70
2018-03-23T19:48:26.190Z,9.80
2018-03-23T19:50:53.942Z,9.80
2018-03-23T19:53:21.102Z,9.80
2018-03-23T19:55:48.242Z,9.80
2018-03-23T19:58:15.402Z,9.80
2018-03-23T20:00:43.163Z,9.90
2018-03-23T20:03:10.302Z,9.90
2018-03-23T20:05:37.464Z,9.90
2018-03-23T20:08:04.382Z,9.90
2018-03-23T20:10:31.751Z,9.90
2018-03-23T20:12:58.911Z,9.90
2018-03-23T20:15:26.978Z,9.90
2018-03-23T20:18:00.271Z,10.00
2018-03-23T20:20:33.251Z,10.00
2018-03-23T20:23:01.011Z,10.00
2018-03-23T20:25:28.172Z,10.00
2018-03-23T20:30:58.111Z,10.00
2018-03-23T20:33:25.251Z,10.00
2018-03-23T20:35:53.131Z,10.00
2018-03-23T20:38:20.471Z,10.00
2018-03-23T20:40:47.932Z,9.90
2018-03-23T20:43:15.091Z,10.00
2018-03-23T20:45:43.571Z,9.90
2018-03-23T20:48:10.911Z,9.90
2018-03-23T20:50:38.071Z,9.90
2018-03-23T20:53:05.212Z,9.90
2018-03-23T20:55:32.372Z,9.90
2018-03-23T20:58:00.131Z,9.80
2018-03-23T21:00:27.272Z,9.80
2018-03-23T21:02:55.352Z,9.80
2018-03-23T21:05:23.111Z,9.70
2018-03-23T21:07:50.251Z,9.70
2018-03-23T21:10:17.418Z,9.70
2018-03-23T21:12:45.693Z,9.70
2018-03-23T21:15:12.933Z,9.70
2018-03-23T21:17:40.091Z,9.50
2018-03-23T21:20:07.231Z,9.70
2018-03-23T21:22:34.391Z,9.70
2018-03-23T21:25:01.856Z,9.60
2018-03-23T21:27:29.603Z,9.70
2018-03-23T21:29:57.366Z,9.70
2018-03-23T21:32:25.128Z,9.60
2018-03-23T21:34:52.287Z,9.70
2018-03-23T21:37:19.427Z,9.70
2018-03-23T21:39:47.508Z,9.60
2018-03-23T21:42:15.584Z,9.60
2018-03-23T21:44:43.650Z,9.60
2018-03-23T21:47:10.803Z,9.60
2018-03-23T21:49:37.942Z,9.60
2018-03-23T21:52:05.102Z,9.60
2018-03-23T21:54:33.163Z,9.60
2018-03-23T21:57:00.333Z,9.50
2018-03-23T21:59:27.462Z,9.60
2018-03-23T22:01:54.606Z,9.50
2018-03-23T22:04:21.769Z,9.50
2018-03-23T22:06:49.830Z,9.40
2018-03-23T22:09:16.989Z,9.40
2018-03-23T22:11:51.809Z,9.40
2018-03-23T22:14:18.969Z,9.40
2018-03-23T22:16:46.110Z,9.30
2018-03-23T22:19:13.470Z,9.30
2018-03-23T22:21:41.651Z,9.20
2018-03-23T22:24:08.790Z,9.20
2018-03-23T22:26:35.949Z,9.20
2018-03-23T22:29:03.089Z,9.20
2018-03-23T22:31:30.257Z,9.20
2018-03-23T22:33:58.310Z,9.20
2018-03-23T22:36:26.389Z,9.20
2018-03-23T22:38:54.449Z,9.20
2018-03-23T22:41:21.592Z,9.20
2018-03-23T22:43:48.754Z,9.10
2018-03-23T22:46:17.750Z,9.20
2018-03-23T22:48:44.889Z,9.10
2018-03-23T22:51:12.051Z,9.10
2018-03-23T22:53:39.190Z,9.20
2018-03-23T22:56:06.350Z,9.10
2018-03-23T22:58:34.410Z,9.10
2018-03-23T23:01:01.549Z,9.10
2018-03-23T23:03:28.710Z,9.20
2018-03-23T23:05:55.890Z,9.20
2018-03-23T23:08:23.351Z,9.20
2018-03-23T23:10:50.489Z,9.20
2018-03-23T23:13:17.650Z,9.20
2018-03-23T23:15:45.710Z,9.30
2018-03-23T23:18:12.869Z,9.30
2018-03-23T23:20:40.009Z,9.30
2018-03-23T23:23:07.476Z,9.30
2018-03-23T23:25:34.629Z,9.30
2018-03-23T23:28:03.009Z,9.30
2018-03-23T23:30:30.149Z,9.30
2018-03-23T23:32:57.289Z,9.30
2018-03-23T23:35:24.450Z,9.30
2018-03-23T23:37:51.589Z,9.30
2018-03-23T23:40:18.750Z,9.40
2018-03-23T23:42:46.809Z,9.40
2018-03-23T23:45:13.970Z,9.40
2018-03-23T23:47:42.030Z,9.40
2018-03-23T23:50:10.409Z,9.40
2018-03-23T23:52:37.569Z,9.50
2018-03-23T23:55:05.630Z,9.50
2018-03-23T23:57:33.090Z,9.50
